Time;durP1;ratioP1;P1;durP2;ratioP2;P2;SDS_P1;SDS_P2;PMS_P1;PMS_P2;Temp;Humidity;BMP_temperature;BMP_pressure;BME280_temperature;BME280_humidity;BME280_pressure;Samples;Min_cycle;Max_cycle;Signal;HPM_P1;HPM_P2
2021/03/09 00:01:32;;;;;;;8.93;6.85;;;2.40;99.90;;;;;;5011248;28;20392;-69
2021/03/09 00:03:58;;;;;;;10.20;7.57;;;3.50;99.90;;;;;;5011990;28;20380;-73
2021/03/09 00:06:23;;;;;;;11.43;7.23;;;1.80;99.90;;;;;;5011087;28;20714;-69
2021/03/09 00:08:49;;;;;;;13.70;8.17;;;1.80;99.90;;;;;;5009285;28;20869;-70
2021/03/09 00:11:15;;;;;;;9.25;7.55;;;3.20;99.90;;;;;;5012519;28;21059;-69
2021/03/09 00:13:40;;;;;;;8.70;7.30;;;1.50;99.90;;;;;;5012076;28;20435;-70
2021/03/09 00:16:06;;;;;;;9.88;7.57;;;2.40;99.90;;;;;;5009814;28;21718;-69
2021/03/09 00:18:32;;;;;;;12.88;7.80;;;2.30;99.90;;;;;;5010910;28;20464;-70
2021/03/09 00:20:58;;;;;;;9.43;6.93;;;2.00;99.90;;;;;;5008276;28;20845;-73
2021/03/09 00:23:23;;;;;;;8.63;6.70;;;1.50;99.90;;;;;;5008798;28;20393;-73
2021/03/09 00:25:49;;;;;;;8.75;7.20;;;2.80;99.90;;;;;;5012830;28;20381;-71
2021/03/09 00:28:22;;;;;;;10.77;7.90;;;1.40;99.90;;;;;;5009441;28;20489;-70
2021/03/09 00:30:48;;;;;;;7.90;7.03;;;2.40;99.90;;;;;;5010440;28;20413;-69
2021/03/09 00:33:14;;;;;;;9.45;7.40;;;1.50;99.90;;;;;;5009537;28;20429;-69
2021/03/09 00:35:39;;;;;;;9.77;6.90;;;1.70;99.90;;;;;;5012198;28;20498;-69
2021/03/09 00:38:05;;;;;;;10.67;7.80;;;2.50;99.90;;;;;;5011677;28;20390;-69
2021/03/09 00:40:30;;;;;;;9.43;6.27;;;1.70;99.90;;;;;;5011123;28;20460;-70
2021/03/09 00:42:56;;;;;;;9.02;7.30;;;2.20;99.90;;;;;;5009258;28;20729;-73
2021/03/09 00:45:22;;;;;;;8.48;6.65;;;1.10;99.90;;;;;;5010137;28;20394;-71
2021/03/09 00:47:48;;;;;;;10.68;7.35;;;1.20;99.90;;;;;;5013355;28;20463;-69
2021/03/09 00:50:14;;;;;;;8.95;7.05;;;1.10;99.90;;;;;;5008773;28;20400;-70
2021/03/09 00:52:39;;;;;;;12.10;7.05;;;1.10;99.90;;;;;;5007787;28;20879;-69
2021/03/09 00:55:06;;;;;;;7.60;6.57;;;1.20;99.90;;;;;;5019641;28;20397;-69
2021/03/09 00:57:31;;;;;;;10.10;6.75;;;1.20;99.90;;;;;;5011284;28;20955;-71
2021/03/09 00:59:57;;;;;;;10.50;6.65;;;1.20;99.90;;;;;;5014110;28;20391;-72
2021/03/09 01:02:22;;;;;;;10.20;7.27;;;1.60;99.90;;;;;;5017241;28;20487;-69
2021/03/09 01:04:48;;;;;;;10.20;7.27;;;1.00;99.90;;;;;;5017388;28;20766;-69
2021/03/09 01:07:14;;;;;;;8.47;6.50;;;1.60;99.90;;;;;;5006110;28;20410;-69
2021/03/09 01:09:39;;;;;;;8.03;6.80;;;1.00;99.90;;;;;;5008631;28;20479;-69
2021/03/09 01:12:05;;;;;;;9.03;7.37;;;1.10;99.90;;;;;;5007605;28;20849;-69
2021/03/09 01:14:31;;;;;;;10.50;7.45;;;0.90;99.90;;;;;;5006646;28;20489;-69
2021/03/09 01:16:57;;;;;;;9.10;7.47;;;1.10;99.90;;;;;;5007076;28;20472;-73
2021/03/09 01:19:22;;;;;;;11.32;7.75;;;0.80;99.90;;;;;;5004702;28;20389;-69
2021/03/09 01:21:48;;;;;;;10.80;7.00;;;1.00;99.90;;;;;;5007270;28;20901;-69
2021/03/09 01:24:14;;;;;;;11.23;6.80;;;1.50;99.90;;;;;;5011447;28;20745;-69
2021/03/09 01:26:39;;;;;;;9.77;7.23;;;1.80;99.90;;;;;;5007981;28;20431;-69
2021/03/09 01:29:05;;;;;;;8.87;6.53;;;0.80;99.90;;;;;;5007899;28;20403;-72
2021/03/09 01:31:31;;;;;;;10.32;6.80;;;1.00;99.90;;;;;;5021776;28;20510;-69
2021/03/09 01:33:56;;;;;;;9.00;6.68;;;1.00;99.90;;;;;;5022890;28;20423;-69
2021/03/09 01:36:22;;;;;;;8.27;7.00;;;0.60;99.90;;;;;;4998050;28;20482;-69
2021/03/09 01:38:48;;;;;;;10.30;6.80;;;0.60;99.90;;;;;;4998413;28;20755;-69
2021/03/09 01:41:14;;;;;;;9.23;6.97;;;1.10;99.90;;;;;;4997014;28;20393;-69
2021/03/09 01:43:40;;;;;;;8.73;6.60;;;1.70;99.90;;;;;;4997910;28;20914;-69
2021/03/09 01:46:06;;;;;;;8.45;6.70;;;0.80;99.90;;;;;;4999540;28;20409;-71
2021/03/09 01:48:40;;;;;;;8.48;6.10;;;1.10;99.90;;;;;;5004356;28;20766;-68
2021/03/09 01:51:06;;;;;;;7.20;5.83;;;0.70;99.90;;;;;;5002212;28;20392;-70
2021/03/09 01:53:32;;;;;;;9.05;6.75;;;0.90;99.90;;;;;;5002387;28;20384;-68
2021/03/09 01:55:58;;;;;;;7.53;6.50;;;1.00;99.90;;;;;;5002907;28;20420;-67
2021/03/09 01:58:26;;;;;;;9.23;6.80;;;0.40;99.90;;;;;;5002482;28;20485;-68
2021/03/09 02:00:51;;;;;;;8.30;6.53;;;0.40;99.90;;;;;;5003889;28;20474;-68
2021/03/09 02:03:17;;;;;;;9.10;7.18;;;0.70;99.90;;;;;;5002232;28;20528;-68
2021/03/09 02:05:44;;;;;;;8.27;6.63;;;0.10;99.90;;;;;;5004606;28;20816;-68
2021/03/09 02:08:09;;;;;;;9.60;7.18;;;0.40;99.90;;;;;;5001352;28;20460;-68
2021/03/09 02:10:37;;;;;;;8.07;6.63;;;0.40;99.90;;;;;;5003952;28;20417;-69
2021/03/09 02:13:44;;;;;;;7.28;6.30;;;0.20;99.90;;;;;;4999619;28;20407;-71
2021/03/09 02:16:25;;;;;;;7.63;6.03;;;0.40;99.90;;;;;;4998993;28;20401;-68
2021/03/09 02:19:18;;;;;;;8.25;6.30;;;0.40;99.90;;;;;;5003299;28;20492;-72
2021/03/09 02:22:23;;;;;;;9.50;5.70;;;0.20;99.90;;;;;;5001941;28;20413;-68
2021/03/09 02:25:07;;;;;;;10.57;6.95;;;0.70;99.90;;;;;;5002456;28;20456;-68
2021/03/09 02:28:11;;;;;;;10.43;6.22;;;0.50;99.90;;;;;;5003557;28;20467;-68
2021/03/09 02:30:40;;;;;;;12.13;6.40;;;0.30;99.90;;;;;;5002531;28;20389;-69
2021/03/09 02:33:27;;;;;;;7.07;5.90;;;0.50;99.90;;;;;;5002172;28;20435;-70
2021/03/09 02:36:16;;;;;;;9.15;6.20;;;0.30;99.90;;;;;;5003314;28;20409;-70
2021/03/09 02:38:51;;;;;;;8.35;6.50;;;1.20;99.90;;;;;;5004708;28;20381;-68
2021/03/09 02:41:19;;;;;;;7.68;5.40;;;0.50;99.90;;;;;;5004948;28;20403;-70
2021/03/09 02:43:49;;;;;;;9.55;5.93;;;0.30;99.90;;;;;;5014970;28;20400;-68
2021/03/09 02:46:18;;;;;;;8.32;6.07;;;1.40;99.90;;;;;;5021827;28;20948;-68
2021/03/09 02:48:45;;;;;;;8.02;5.53;;;1.30;99.90;;;;;;5006218;28;20396;-68
2021/03/09 02:51:12;;;;;;;7.50;6.03;;;0.40;99.90;;;;;;5005444;28;20396;-72
2021/03/09 02:53:43;;;;;;;7.75;6.32;;;0.80;99.90;;;;;;5004520;28;20373;-68
2021/03/09 02:56:10;;;;;;;8.43;5.75;;;0.30;99.90;;;;;;5005608;28;20385;-67
2021/03/09 02:58:38;;;;;;;7.30;5.87;;;0.40;99.90;;;;;;5006050;28;20451;-68
2021/03/09 03:01:06;;;;;;;7.43;5.78;;;0.60;99.90;;;;;;5006752;28;20401;-72
2021/03/09 03:03:33;;;;;;;6.95;6.10;;;0.50;99.90;;;;;;5006280;28;20438;-68
2021/03/09 03:06:00;;;;;;;7.38;5.50;;;0.40;99.90;;;;;;5010459;28;20385;-70
2021/03/09 03:08:28;;;;;;;7.43;5.63;;;0.10;99.90;;;;;;5009632;28;20389;-67
2021/03/09 03:10:56;;;;;;;7.67;6.13;;;0.30;99.90;;;;;;5011039;28;20481;-68
2021/03/09 03:13:22;;;;;;;7.22;5.82;;;0.20;99.90;;;;;;5006636;28;20385;-67
2021/03/09 03:15:50;;;;;;;9.02;6.45;;;1.20;99.90;;;;;;5009295;28;20796;-68
2021/03/09 03:18:18;;;;;;;8.80;7.10;;;0.20;99.90;;;;;;5010004;28;20773;-68
2021/03/09 03:20:45;;;;;;;8.57;6.57;;;1.40;99.90;;;;;;5018806;28;20387;-71
2021/03/09 03:23:13;;;;;;;8.05;6.55;;;0.30;99.90;;;;;;5008672;28;20815;-68
2021/03/09 03:25:39;;;;;;;10.68;6.57;;;0.20;99.90;;;;;;5010621;28;20750;-69
2021/03/09 03:28:09;;;;;;;8.40;6.10;;;1.00;99.90;;;;;;5009973;28;20400;-72
2021/03/09 03:30:35;;;;;;;7.45;5.78;;;0.80;99.90;;;;;;5008245;28;20397;-68
2021/03/09 03:33:01;;;;;;;6.60;5.65;;;0.40;99.90;;;;;;5009749;28;20715;-67
2021/03/09 03:35:27;;;;;;;7.22;6.30;;;1.30;99.90;;;;;;5019455;28;20474;-68
2021/03/09 03:37:53;;;;;;;8.60;6.10;;;0.40;99.90;;;;;;5009311;28;20416;-68
2021/03/09 03:40:21;;;;;;;8.13;6.10;;;0.50;99.90;;;;;;5009644;28;20392;-67
2021/03/09 03:42:48;;;;;;;10.40;6.50;;;-0.10;99.90;;;;;;5006702;28;20396;-68
2021/03/09 03:45:17;;;;;;;8.30;6.47;;;0.30;99.90;;;;;;5006750;28;20856;-67
2021/03/09 03:47:43;;;;;;;7.65;6.35;;;-0.80;99.90;;;;;;5023733;28;20438;-67
2021/03/09 03:50:12;;;;;;;8.90;6.78;;;0.40;99.90;;;;;;5008012;28;20413;-71
2021/03/09 03:52:56;;;;;;;9.32;6.72;;;0.10;99.90;;;;;;5006990;28;20442;-67
2021/03/09 03:55:48;;;;;;;8.90;7.05;;;0.30;99.90;;;;;;5003043;28;20421;-67
2021/03/09 03:58:50;;;;;;;8.40;6.70;;;0.30;99.90;;;;;;4998197;28;20408;-67
2021/03/09 04:01:20;;;;;;;8.88;7.03;;;0.30;99.90;;;;;;5004419;28;20549;-67
2021/03/09 04:03:49;;;;;;;8.65;6.75;;;0.40;99.90;;;;;;5001786;28;20391;-68
2021/03/09 04:06:17;;;;;;;11.70;6.93;;;0.80;99.90;;;;;;5003131;28;20901;-68
2021/03/09 04:08:43;;;;;;;9.85;6.10;;;1.50;99.90;;;;;;5001138;28;20385;-68
2021/03/09 04:11:10;;;;;;;8.75;7.10;;;0.20;99.90;;;;;;5001331;28;20380;-71
2021/03/09 04:13:37;;;;;;;7.75;6.53;;;0.30;99.90;;;;;;4999854;28;20391;-68
2021/03/09 04:16:04;;;;;;;9.35;7.30;;;1.30;99.90;;;;;;5000102;28;20435;-67
2021/03/09 04:18:31;;;;;;;8.93;6.45;;;0.20;99.90;;;;;;4997758;28;20646;-67
2021/03/09 04:20:57;;;;;;;8.90;6.00;;;0.50;99.90;;;;;;5019828;28;20464;-70
2021/03/09 04:23:24;;;;;;;10.95;6.85;;;0.50;99.90;;;;;;4999526;28;20383;-68
2021/03/09 04:25:52;;;;;;;12.02;8.02;;;0.20;99.90;;;;;;4999866;28;20391;-68
2021/03/09 04:28:18;;;;;;;9.38;6.68;;;0.10;99.90;;;;;;4999320;28;20402;-68
2021/03/09 04:30:44;;;;;;;11.30;7.60;;;0.00;99.90;;;;;;5000694;28;20383;-68
2021/03/09 04:33:10;;;;;;;9.15;7.10;;;0.50;99.90;;;;;;5002377;28;20401;-72
2021/03/09 04:35:37;;;;;;;11.23;7.60;;;0.60;99.90;;;;;;4998882;28;20407;-68
2021/03/09 04:38:03;;;;;;;10.05;7.00;;;0.20;99.90;;;;;;5000669;28;20474;-67
2021/03/09 04:40:30;;;;;;;10.75;7.45;;;1.90;99.90;;;;;;4998381;28;20541;-68
2021/03/09 04:42:56;;;;;;;12.13;7.28;;;0.40;99.90;;;;;;5000703;28;20390;-68
2021/03/09 04:45:22;;;;;;;8.93;7.15;;;1.20;99.90;;;;;;5005772;28;20402;-67
2021/03/09 04:47:48;;;;;;;7.53;6.00;;;0.30;99.90;;;;;;5006536;28;20849;-70
2021/03/09 04:50:15;;;;;;;11.30;7.55;;;-0.20;99.90;;;;;;5004261;28;20741;-70
2021/03/09 04:52:45;;;;;;;10.30;7.07;;;0.20;99.90;;;;;;5007469;28;20392;-68
2021/03/09 04:55:14;;;;;;;10.10;6.75;;;1.10;99.90;;;;;;5004460;28;20389;-72
2021/03/09 04:57:43;;;;;;;9.77;6.65;;;0.30;99.90;;;;;;5005435;28;20427;-68
2021/03/09 05:00:12;;;;;;;9.50;6.13;;;0.50;99.90;;;;;;5004703;28;21513;-71
2021/03/09 05:02:37;;;;;;;8.70;7.07;;;-0.80;99.90;;;;;;5005112;28;20385;-69
2021/03/09 05:05:04;;;;;;;7.95;6.72;;;0.30;99.90;;;;;;5004460;28;20389;-68
2021/03/09 05:07:30;;;;;;;8.85;7.10;;;0.10;99.90;;;;;;5005699;28;20456;-67
2021/03/09 05:09:55;;;;;;;9.73;7.80;;;0.20;99.90;;;;;;5006349;28;20416;-68
2021/03/09 05:12:21;;;;;;;9.93;7.37;;;0.10;99.90;;;;;;5003079;28;20379;-71
2021/03/09 05:14:47;;;;;;;11.25;8.00;;;0.50;99.90;;;;;;5006752;28;20396;-68
2021/03/09 05:17:13;;;;;;;11.98;8.02;;;0.00;99.90;;;;;;5004273;28;20504;-73
2021/03/09 05:19:38;;;;;;;11.27;7.70;;;0.50;99.90;;;;;;5005966;28;20861;-69
2021/03/09 05:22:05;;;;;;;12.43;7.50;;;0.00;99.90;;;;;;5005050;28;20869;-68
2021/03/09 05:24:30;;;;;;;10.90;7.47;;;0.10;99.90;;;;;;5005162;28;20389;-68
2021/03/09 05:26:56;;;;;;;10.93;7.80;;;0.10;99.90;;;;;;5006034;28;20412;-69
2021/03/09 05:29:24;;;;;;;11.15;7.88;;;0.70;99.90;;;;;;5003497;28;20481;-69
2021/03/09 05:31:50;;;;;;;11.98;8.35;;;-0.20;99.90;;;;;;5004509;28;20384;-68
2021/03/09 05:34:16;;;;;;;11.48;8.48;;;0.00;99.90;;;;;;5004198;28;20416;-69
2021/03/09 05:36:41;;;;;;;10.37;7.80;;;1.30;99.90;;;;;;5006008;28;20443;-68
2021/03/09 05:39:07;;;;;;;11.10;7.70;;;0.50;99.90;;;;;;5005378;28;20494;-68
2021/03/09 05:41:37;;;;;;;9.80;7.40;;;0.10;99.90;;;;;;5003250;28;20516;-69
2021/03/09 05:44:03;;;;;;;11.70;8.10;;;-0.10;99.90;;;;;;5005500;28;20417;-68
2021/03/09 05:46:30;;;;;;;9.13;7.78;;;0.10;99.90;;;;;;5004762;28;20391;-69
2021/03/09 05:48:56;;;;;;;11.75;7.25;;;0.20;99.90;;;;;;5006045;28;20472;-68
2021/03/09 05:51:22;;;;;;;10.90;8.30;;;1.20;99.90;;;;;;5004997;28;20467;-69
2021/03/09 05:53:47;;;;;;;9.32;6.72;;;0.70;99.90;;;;;;5024219;28;20479;-68
2021/03/09 05:56:13;;;;;;;10.48;8.20;;;0.90;99.90;;;;;;5008453;28;20885;-73
2021/03/09 05:58:39;;;;;;;8.80;7.33;;;-0.10;99.90;;;;;;5008119;28;20941;-71
2021/03/09 06:01:04;;;;;;;8.55;6.57;;;0.30;99.90;;;;;;5009089;28;20750;-69
2021/03/09 06:03:30;;;;;;;8.30;6.90;;;0.40;99.90;;;;;;5008126;28;20436;-73
2021/03/09 06:05:56;;;;;;;9.30;7.03;;;0.30;99.90;;;;;;5007962;28;20380;-69
2021/03/09 06:08:22;;;;;;;9.95;7.72;;;1.30;99.90;;;;;;5008024;28;20395;-69
2021/03/09 06:10:49;;;;;;;8.57;6.55;;;0.40;99.90;;;;;;5008484;28;20381;-69
2021/03/09 06:13:34;;;;;;;8.40;6.80;;;0.30;99.90;;;;;;5005847;28;20385;-72
2021/03/09 06:16:00;;;;;;;9.00;6.95;;;-0.10;99.90;;;;;;5006849;28;20833;-68
2021/03/09 06:18:26;;;;;;;9.30;6.93;;;-0.10;99.90;;;;;;5007585;28;20926;-68
2021/03/09 06:21:15;;;;;;;12.13;7.83;;;-0.20;99.90;;;;;;5008580;28;20475;-69
2021/03/09 06:23:42;;;;;;;11.35;7.15;;;-0.10;99.90;;;;;;5006565;28;20384;-69
2021/03/09 06:26:36;;;;;;;11.40;7.82;;;1.20;99.90;;;;;;5008653;28;20385;-68
2021/03/09 06:29:11;;;;;;;9.30;6.95;;;-0.30;99.90;;;;;;5008641;28;20397;-69
2021/03/09 06:31:39;;;;;;;12.17;8.87;;;0.00;99.90;;;;;;5004157;28;20441;-69
2021/03/09 06:34:26;;;;;;;10.23;7.77;;;0.00;99.90;;;;;;5006080;28;20401;-69
2021/03/09 06:37:10;;;;;;;11.90;8.90;;;0.00;99.90;;;;;;5008284;28;20403;-69
2021/03/09 06:39:54;;;;;;;9.27;8.02;;;0.00;99.90;;;;;;5008366;28;20919;-69
2021/03/09 06:42:22;;;;;;;12.80;8.35;;;0.20;99.90;;;;;;5010422;28;20396;-71
2021/03/09 06:44:54;;;;;;;13.07;8.65;;;0.10;99.90;;;;;;5012399;28;20890;-68
2021/03/09 06:47:41;;;;;;;12.00;8.63;;;0.20;99.90;;;;;;5008286;28;20399;-71
2021/03/09 06:50:13;;;;;;;11.35;8.80;;;1.90;99.90;;;;;;5010427;28;20377;-69
2021/03/09 06:52:40;;;;;;;12.38;8.75;;;0.30;99.90;;;;;;5010644;28;20383;-69
2021/03/09 06:55:08;;;;;;;12.68;8.50;;;0.40;99.90;;;;;;5012882;28;20389;-69
2021/03/09 06:57:34;;;;;;;11.57;8.48;;;0.30;99.90;;;;;;5008939;28;20439;-70
2021/03/09 07:00:00;;;;;;;11.48;8.90;;;1.20;99.90;;;;;;5009432;28;20744;-69
2021/03/09 07:02:27;;;;;;;9.95;8.00;;;1.10;99.90;;;;;;5003424;28;20383;-68
2021/03/09 07:05:07;;;;;;;11.02;7.43;;;0.60;99.90;;;;;;5002629;28;20751;-68
2021/03/09 07:07:40;;;;;;;13.65;9.00;;;1.00;99.90;;;;;;5004266;28;20404;-68
2021/03/09 07:10:09;;;;;;;11.45;7.78;;;1.40;99.90;;;;;;5004179;28;20446;-68
2021/03/09 07:12:38;;;;;;;11.43;8.48;;;0.90;99.90;;;;;;5001462;28;20399;-68
2021/03/09 07:15:06;;;;;;;11.10;8.02;;;2.50;99.90;;;;;;5003667;28;20393;-68
2021/03/09 07:17:33;;;;;;;10.43;7.70;;;1.20;99.90;;;;;;5002622;28;20495;-69
2021/03/09 07:19:59;;;;;;;11.68;9.05;;;3.00;99.90;;;;;;5005939;28;20477;-69
2021/03/09 07:22:26;;;;;;;12.60;8.18;;;2.00;99.90;;;;;;5002664;28;20384;-69
2021/03/09 07:24:59;;;;;;;10.77;8.68;;;1.60;99.90;;;;;;5006611;28;20390;-69
2021/03/09 07:28:03;;;;;;;11.02;7.90;;;1.60;99.90;;;;;;5003919;28;20404;-68
2021/03/09 07:30:32;;;;;;;13.27;8.90;;;1.60;99.90;;;;;;5005467;28;21007;-69
2021/03/09 07:32:59;;;;;;;11.30;8.32;;;1.60;99.90;;;;;;5006651;28;20393;-69
2021/03/09 07:35:27;;;;;;;12.10;8.40;;;1.70;99.90;;;;;;5005074;28;20489;-69
2021/03/09 07:37:55;;;;;;;13.05;8.30;;;2.80;99.90;;;;;;5006573;28;20902;-69
2021/03/09 07:40:29;;;;;;;11.27;8.75;;;2.60;99.90;;;;;;5006066;28;20921;-73
2021/03/09 07:42:58;;;;;;;14.75;8.52;;;1.90;99.90;;;;;;5006904;28;20393;-69
2021/03/09 07:45:26;;;;;;;13.73;9.35;;;1.70;99.90;;;;;;5005158;28;20751;-72
2021/03/09 07:47:55;;;;;;;13.23;8.77;;;1.80;99.90;;;;;;5006845;28;20399;-69
2021/03/09 07:50:23;;;;;;;13.30;9.25;;;3.20;99.90;;;;;;5005877;28;20383;-73
2021/03/09 07:53:05;;;;;;;12.38;9.70;;;2.00;99.90;;;;;;5016167;28;20385;-68
2021/03/09 07:55:32;;;;;;;13.05;8.60;;;2.20;99.90;;;;;;5004793;28;20467;-68
2021/03/09 07:58:23;;;;;;;10.82;8.38;;;2.10;99.90;;;;;;5007854;28;20427;-68
2021/03/09 08:00:56;;;;;;;11.20;8.32;;;2.20;99.90;;;;;;5005809;28;20401;-68
2021/03/09 08:03:48;;;;;;;11.60;8.93;;;2.10;99.90;;;;;;5002252;28;20491;-73
2021/03/09 08:06:15;;;;;;;12.07;8.77;;;2.20;99.90;;;;;;4998807;28;20407;-70
2021/03/09 08:08:50;;;;;;;13.68;8.75;;;3.20;99.90;;;;;;5001534;28;20394;-70
2021/03/09 08:11:27;;;;;;;12.10;8.90;;;2.30;99.90;;;;;;5001223;28;20396;-68
2021/03/09 08:14:08;;;;;;;12.18;8.77;;;2.50;99.90;;;;;;5003215;28;20881;-69
2021/03/09 08:16:36;;;;;;;10.27;7.57;;;2.30;99.90;;;;;;5001621;28;20385;-68
2021/03/09 08:19:37;;;;;;;12.55;9.18;;;2.50;99.90;;;;;;5002853;28;20401;-68
2021/03/09 08:22:04;;;;;;;12.70;8.73;;;2.50;99.90;;;;;;5003792;28;20392;-68
2021/03/09 08:24:42;;;;;;;13.20;8.77;;;2.60;99.90;;;;;;5003554;28;20442;-73
2021/03/09 08:27:35;;;;;;;10.70;8.52;;;2.70;99.90;;;;;;5005035;28;20420;-68
2021/03/09 08:30:07;;;;;;;11.30;8.35;;;3.00;99.90;;;;;;5005692;28;20493;-73
2021/03/09 08:32:35;;;;;;;12.70;8.60;;;3.10;99.90;;;;;;5000938;28;20396;-68
2021/03/09 08:35:13;;;;;;;11.23;9.02;;;2.80;99.90;;;;;;5004451;28;20859;-69
2021/03/09 08:37:44;;;;;;;11.40;9.30;;;3.00;99.90;;;;;;5022458;28;20413;-68
2021/03/09 08:40:13;;;;;;;13.43;9.57;;;3.00;99.90;;;;;;5006598;28;20397;-68
2021/03/09 08:43:01;;;;;;;13.10;9.07;;;2.80;99.90;;;;;;5005773;28;20416;-71
2021/03/09 08:45:41;;;;;;;12.73;8.80;;;3.10;99.90;;;;;;5005650;28;20412;-70
2021/03/09 08:48:08;;;;;;;11.05;9.70;;;3.20;99.90;;;;;;5006915;28;20893;-68
2021/03/09 08:50:42;;;;;;;12.73;9.13;;;3.70;99.90;;;;;;5004442;28;20385;-68
2021/03/09 08:53:26;;;;;;;13.23;9.18;;;3.50;99.90;;;;;;5002209;28;20430;-69
2021/03/09 08:55:56;;;;;;;16.65;9.55;;;3.40;99.90;;;;;;5005654;28;20437;-72
2021/03/09 08:58:22;;;;;;;12.83;9.20;;;4.70;99.90;;;;;;5023481;28;20718;-68
2021/03/09 09:00:48;;;;;;;12.15;9.20;;;3.30;99.90;;;;;;5002107;28;20417;-69
2021/03/09 09:03:30;;;;;;;13.45;9.57;;;4.30;99.90;;;;;;5000722;28;20388;-69
2021/03/09 09:05:55;;;;;;;11.60;9.60;;;4.20;99.90;;;;;;5003155;28;20441;-72
2021/03/09 09:08:21;;;;;;;10.95;9.02;;;3.60;99.90;;;;;;5002747;28;20931;-69
2021/03/09 09:10:47;;;;;;;10.70;8.80;;;3.70;99.90;;;;;;5004120;28;20426;-72
2021/03/09 09:13:13;;;;;;;14.73;9.40;;;4.40;99.90;;;;;;5020089;28;20437;-69
2021/03/09 09:15:38;;;;;;;13.37;10.03;;;4.10;99.90;;;;;;5002119;28;20389;-68
2021/03/09 09:18:07;;;;;;;11.48;8.63;;;3.90;99.90;;;;;;5002471;28;20492;-68
2021/03/09 09:20:43;;;;;;;13.30;9.90;;;4.00;99.90;;;;;;4999372;28;20420;-68
2021/03/09 09:23:20;;;;;;;12.75;9.48;;;3.80;99.90;;;;;;5001424;28;20393;-69
2021/03/09 09:25:48;;;;;;;13.68;9.95;;;4.00;99.90;;;;;;5001354;28;20439;-67
2021/03/09 09:28:28;;;;;;;14.60;9.75;;;4.30;99.90;;;;;;5006333;28;20425;-67
2021/03/09 09:30:56;;;;;;;13.45;9.02;;;4.20;99.90;;;;;;5004145;28;20400;-67
2021/03/09 09:33:23;;;;;;;13.32;9.52;;;4.40;99.90;;;;;;5002752;28;20494;-68
2021/03/09 09:35:49;;;;;;;14.43;9.73;;;4.40;99.10;;;;;;5000347;28;20405;-68
2021/03/09 09:38:17;;;;;;;12.65;8.20;;;4.00;99.40;;;;;;5003912;28;20412;-68
2021/03/09 09:40:48;;;;;;;13.38;9.38;;;4.70;99.90;;;;;;5005323;28;20765;-68
2021/03/09 09:43:23;;;;;;;11.43;9.13;;;4.50;97.30;;;;;;5004443;28;20403;-69
2021/03/09 09:45:52;;;;;;;15.70;10.40;;;4.50;99.90;;;;;;5002933;28;20395;-68
2021/03/09 09:48:20;;;;;;;11.43;8.93;;;4.50;98.70;;;;;;5003725;28;20488;-68
2021/03/09 09:50:48;;;;;;;18.05;9.70;;;4.70;97.90;;;;;;5002371;28;20523;-71
2021/03/09 09:53:36;;;;;;;13.23;9.55;;;4.80;99.90;;;;;;5001198;28;20385;-71
2021/03/09 09:56:04;;;;;;;14.00;10.03;;;5.40;99.90;;;;;;5002966;28;20469;-68
2021/03/09 09:58:43;;;;;;;12.15;10.20;;;4.70;97.40;;;;;;5001605;28;20463;-72
2021/03/09 10:01:09;;;;;;;11.63;9.27;;;5.00;99.90;;;;;;5002321;28;20401;-68
2021/03/09 10:03:59;;;;;;;13.77;9.10;;;4.80;98.50;;;;;;5000770;28;20416;-68
2021/03/09 10:06:27;;;;;;;11.27;9.05;;;4.50;94.20;;;;;;5001378;28;20443;-70
2021/03/09 10:08:54;;;;;;;12.00;9.48;;;5.20;99.90;;;;;;5000008;28;20397;-69
2021/03/09 10:11:21;;;;;;;11.23;9.15;;;5.30;97.40;;;;;;5001541;28;20459;-68
2021/03/09 10:13:48;;;;;;;11.43;8.65;;;4.60;96.20;;;;;;5002148;28;20381;-69
2021/03/09 10:16:14;;;;;;;9.98;8.27;;;5.00;95.20;;;;;;5002030;28;20397;-71
2021/03/09 10:18:40;;;;;;;14.10;9.90;;;5.10;95.00;;;;;;5001722;28;20412;-68
2021/03/09 10:21:08;;;;;;;15.55;10.88;;;5.60;95.80;;;;;;5003528;28;20388;-68
2021/03/09 10:23:53;;;;;;;11.60;10.05;;;6.20;99.60;;;;;;5000190;28;20413;-69
2021/03/09 10:26:41;;;;;;;10.85;8.90;;;5.80;95.20;;;;;;5002967;28;20459;-68
2021/03/09 10:29:18;;;;;;;13.73;9.73;;;5.90;98.50;;;;;;5003130;28;20389;-67
2021/03/09 10:31:48;;;;;;;13.45;9.98;;;5.00;91.80;;;;;;5000375;28;20401;-67
2021/03/09 10:34:16;;;;;;;11.35;9.50;;;5.80;91.40;;;;;;5000513;28;20405;-66
2021/03/09 10:36:59;;;;;;;12.43;9.32;;;6.40;94.10;;;;;;5001027;28;20388;-68
2021/03/09 10:39:26;;;;;;;13.10;9.40;;;5.90;93.50;;;;;;5002103;28;20861;-68
2021/03/09 10:41:52;;;;;;;9.60;8.40;;;5.90;93.20;;;;;;5000653;28;20428;-69
2021/03/09 10:44:35;;;;;;;10.68;9.50;;;6.70;93.30;;;;;;5003390;28;20448;-68
2021/03/09 10:47:04;;;;;;;11.57;8.60;;;6.10;94.50;;;;;;5002208;28;20439;-68
2021/03/09 10:49:30;;;;;;;9.90;8.57;;;6.30;94.80;;;;;;5000381;28;20378;-70
2021/03/09 10:52:06;;;;;;;10.48;8.43;;;6.40;95.30;;;;;;4999618;28;20386;-66
2021/03/09 10:54:33;;;;;;;11.73;8.60;;;6.30;92.70;;;;;;5000698;28;20432;-70
2021/03/09 10:57:02;;;;;;;13.00;9.45;;;6.70;96.00;;;;;;5000396;28;20397;-69
2021/03/09 10:59:27;;;;;;;11.80;9.20;;;6.60;95.50;;;;;;5004109;28;20474;-68
2021/03/09 11:01:53;;;;;;;15.13;8.73;;;6.40;95.50;;;;;;5003514;28;20460;-68
2021/03/09 11:04:19;;;;;;;11.60;8.90;;;6.40;99.30;;;;;;5003706;28;20389;-67
2021/03/09 11:06:45;;;;;;;13.20;9.55;;;6.90;95.80;;;;;;5003452;28;20377;-68
2021/03/09 11:09:10;;;;;;;13.00;9.43;;;7.70;96.00;;;;;;5003192;28;20393;-72
2021/03/09 11:11:36;;;;;;;11.10;9.30;;;7.00;94.50;;;;;;5003297;28;20459;-68
2021/03/09 11:14:02;;;;;;;10.75;8.70;;;7.00;98.40;;;;;;5005109;28;20399;-68
2021/03/09 11:16:30;;;;;;;11.65;9.38;;;7.50;92.90;;;;;;5008090;28;20389;-67
2021/03/09 11:19:00;;;;;;;12.60;8.77;;;7.70;93.60;;;;;;5000928;28;20443;-67
2021/03/09 11:21:27;;;;;;;15.30;9.50;;;7.70;95.00;;;;;;5005551;28;20916;-68
2021/03/09 11:23:54;;;;;;;11.33;9.60;;;7.80;92.10;;;;;;5003260;28;21071;-67
2021/03/09 11:26:21;;;;;;;11.70;9.43;;;7.90;94.10;;;;;;5008158;28;20397;-66
2021/03/09 11:28:48;;;;;;;11.65;9.20;;;7.50;90.30;;;;;;5008035;28;20395;-67
2021/03/09 11:31:15;;;;;;;12.68;9.27;;;7.40;90.60;;;;;;5006855;28;20968;-66
2021/03/09 11:33:41;;;;;;;11.30;9.25;;;8.10;88.70;;;;;;5005335;28;20377;-67
2021/03/09 11:36:07;;;;;;;11.57;9.00;;;9.10;83.40;;;;;;5006212;28;20390;-67
2021/03/09 11:38:32;;;;;;;11.60;9.45;;;9.00;81.70;;;;;;5004971;28;20408;-70
2021/03/09 11:40:58;;;;;;;9.70;8.30;;;8.90;88.10;;;;;;5004052;28;20392;-70
2021/03/09 11:43:24;;;;;;;9.85;8.85;;;9.00;84.20;;;;;;5013116;28;20449;-70
2021/03/09 11:45:50;;;;;;;12.65;9.43;;;9.80;81.70;;;;;;5005217;28;20865;-68
2021/03/09 11:48:16;;;;;;;12.85;9.05;;;9.80;85.50;;;;;;5004835;28;20404;-69
2021/03/09 11:50:42;;;;;;;11.55;8.95;;;9.00;83.50;;;;;;5003507;28;20419;-68
2021/03/09 11:53:08;;;;;;;10.82;9.30;;;9.10;78.40;;;;;;5004871;28;20420;-67
2021/03/09 11:55:34;;;;;;;13.27;9.88;;;9.60;79.80;;;;;;5004905;28;20393;-71
2021/03/09 11:57:59;;;;;;;12.57;9.23;;;9.80;87.80;;;;;;5007670;28;20984;-67
2021/03/09 12:00:25;;;;;;;10.70;9.10;;;10.50;76.00;;;;;;5007893;28;21658;-68
2021/03/09 12:02:51;;;;;;;12.15;9.20;;;10.40;72.60;;;;;;5004240;28;20876;-68
2021/03/09 12:05:17;;;;;;;11.80;9.60;;;10.60;83.20;;;;;;5005348;28;20448;-67
2021/03/09 12:07:43;;;;;;;12.00;10.70;;;9.80;76.20;;;;;;5001762;28;20427;-68
2021/03/09 12:10:09;;;;;;;10.30;9.13;;;11.00;74.80;;;;;;5003721;28;20989;-67
2021/03/09 12:12:35;;;;;;;11.80;9.85;;;10.90;81.30;;;;;;5011850;28;20871;-73
2021/03/09 12:15:00;;;;;;;12.93;10.50;;;10.70;72.60;;;;;;5000816;28;20442;-69
2021/03/09 12:17:26;;;;;;;12.37;9.97;;;10.60;71.00;;;;;;5005257;28;20429;-68
2021/03/09 12:19:52;;;;;;;12.10;9.77;;;10.70;81.00;;;;;;5000934;28;20743;-67
2021/03/09 12:22:18;;;;;;;11.30;9.20;;;11.00;72.10;;;;;;5004052;28;20389;-68
2021/03/09 12:24:44;;;;;;;14.00;10.13;;;11.80;71.60;;;;;;5005911;28;20873;-68
2021/03/09 12:27:09;;;;;;;12.15;10.23;;;11.70;80.10;;;;;;5006597;28;20484;-67
2021/03/09 12:29:35;;;;;;;13.75;10.10;;;11.20;70.10;;;;;;5008874;28;20694;-69
2021/03/09 12:32:01;;;;;;;10.38;9.10;;;12.20;74.00;;;;;;5005798;28;20397;-67
2021/03/09 12:34:26;;;;;;;12.10;10.47;;;12.20;71.10;;;;;;5008721;28;20877;-68
2021/03/09 12:36:52;;;;;;;10.23;9.00;;;12.70;68.90;;;;;;5006214;28;20474;-69
2021/03/09 12:39:18;;;;;;;11.70;10.30;;;11.90;76.20;;;;;;5010016;28;20405;-69
2021/03/09 12:41:43;;;;;;;12.25;9.85;;;11.60;69.20;;;;;;5007932;28;20439;-69
2021/03/09 12:44:09;;;;;;;11.68;10.15;;;11.50;69.30;;;;;;5009044;28;20404;-68
2021/03/09 12:46:35;;;;;;;12.60;10.30;;;12.70;68.90;;;;;;5009688;28;20387;-69
2021/03/09 12:49:00;;;;;;;14.73;9.63;;;11.50;65.70;;;;;;5008177;28;20401;-68
2021/03/09 12:51:26;;;;;;;10.43;9.32;;;12.70;76.10;;;;;;5008035;28;20381;-69
2021/03/09 12:53:52;;;;;;;11.38;10.13;;;12.50;66.00;;;;;;5005406;28;20421;-69
2021/03/09 12:56:20;;;;;;;11.27;10.07;;;11.40;68.30;;;;;;5013798;28;20483;-68
2021/03/09 12:58:46;;;;;;;12.73;9.35;;;12.60;67.60;;;;;;5007004;28;20425;-70
2021/03/09 13:01:12;;;;;;;13.77;11.10;;;12.60;65.80;;;;;;4999632;28;20397;-67